Terminal Aerodrome Forecast
Issued by NWS

Home | Current Version | Previous Version | Text Only | Print | Product List | Glossary On
Versions: 1 2 3 4 5 6 7 8 9 10 11 12
356
FTUS42 KMLB 120531
TAFISM
TAF
KISM 120531Z 1206/1306 VRB02KT P6SM SKC
     FM121500 21010KT P6SM SKC
     FM121800 23012G20KT P6SM FEW250
     FM122200 25008KT P6SM SKC
      AMD NOT SKED TIL 121200=

USA.gov is the U.S. government's official web portal to all federal, state and local government web resources and services.